Time;durP1;ratioP1;P1;durP2;ratioP2;P2;SDS_P1;SDS_P2;PMS_P1;PMS_P2;Temp;Humidity;BMP_temperature;BMP_pressure;BME280_temperature;BME280_humidity;BME280_pressure;Samples;Min_cycle;Max_cycle;Signal;HPM_P1;HPM_P2
2022/06/29 00:02:01;;;;;;;0.10;0.10;;;;;;;;;;5089619;28;20560;-83
2022/06/29 00:04:27;;;;;;;0.08;0.08;;;;;;;;;;5090168;28;20111;-83
2022/06/29 00:06:52;;;;;;;0.22;0.22;;;;;;;;;;5090505;28;20027;-84
2022/06/29 00:09:17;;;;;;;0.00;0.00;;;;;;;;;;5093014;28;20340;-86
2022/06/29 00:11:43;;;;;;;0.00;0.00;;;;;;;;;;5090536;28;20024;-83
2022/06/29 00:14:08;;;;;;;0.03;0.03;;;;;;;;;;5091568;28;20031;-85
2022/06/29 00:16:34;;;;;;;0.00;0.00;;;;;;;;;;5089833;28;20027;-84
2022/06/29 00:18:59;;;;;;;3.00;2.45;;;;;;;;;;5093317;28;20020;-86
2022/06/29 00:21:24;;;;;;;0.10;0.10;;;;;;;;;;5090637;28;20032;-85
2022/06/29 00:23:50;;;;;;;0.00;0.00;;;;;;;;;;5091275;28;20031;-86
2022/06/29 00:26:15;;;;;;;0.00;0.00;;;;;;;;;;5091485;28;20052;-85
2022/06/29 00:28:41;;;;;;;0.00;0.00;;;;;;;;;;5090919;28;20460;-87
2022/06/29 00:31:08;;;;;;;0.15;0.15;;;;;;;;;;5090621;28;20055;-85
2022/06/29 00:33:33;;;;;;;0.10;0.00;;;;;;;;;;5092319;28;20031;-85
2022/06/29 00:35:58;;;;;;;0.40;0.17;;;;;;;;;;5091642;28;20020;-86
2022/06/29 00:38:24;;;;;;;0.00;0.00;;;;;;;;;;5088169;28;20028;-86
2022/06/29 00:40:50;;;;;;;0.00;0.00;;;;;;;;;;5091170;28;20376;-85
2022/06/29 00:43:15;;;;;;;0.10;0.10;;;;;;;;;;5090797;28;20024;-86
2022/06/29 00:45:41;;;;;;;0.00;0.00;;;;;;;;;;5091849;28;20035;-84
2022/06/29 00:48:07;;;;;;;0.00;0.00;;;;;;;;;;5092047;28;20032;-85
2022/06/29 00:50:33;;;;;;;0.00;0.00;;;;;;;;;;5091492;28;20024;-85
2022/06/29 00:53:04;;;;;;;0.10;0.10;;;;;;;;;;5092235;28;20060;-86
2022/06/29 00:55:31;;;;;;;0.00;0.00;;;;;;;;;;5093725;28;20059;-85
2022/06/29 00:58:04;;;;;;;0.05;0.05;;;;;;;;;;5091938;28;20028;-85
2022/06/29 01:00:30;;;;;;;0.00;0.00;;;;;;;;;;5093585;28;20074;-85
2022/06/29 01:02:59;;;;;;;0.00;0.00;;;;;;;;;;5093045;28;20031;-85
2022/06/29 01:05:26;;;;;;;0.00;0.00;;;;;;;;;;5093696;28;20062;-86
2022/06/29 01:07:52;;;;;;;0.00;0.00;;;;;;;;;;5092036;28;20261;-85
2022/06/29 01:10:19;;;;;;;0.00;0.00;;;;;;;;;;5092154;28;20032;-85
2022/06/29 01:12:51;;;;;;;0.10;0.10;;;;;;;;;;5092078;28;20364;-85
2022/06/29 01:15:17;;;;;;;0.00;0.00;;;;;;;;;;5092444;28;20485;-86
2022/06/29 01:17:43;;;;;;;0.00;0.00;;;;;;;;;;5091835;28;20039;-83
2022/06/29 01:20:10;;;;;;;0.10;0.10;;;;;;;;;;5088447;28;20380;-87
2022/06/29 01:22:36;;;;;;;0.10;0.10;;;;;;;;;;5093103;28;20051;-83
2022/06/29 01:25:03;;;;;;;0.00;0.00;;;;;;;;;;5092554;28;20039;-86
2022/06/29 01:27:29;;;;;;;0.10;0.10;;;;;;;;;;5091859;28;20035;-87
2022/06/29 01:29:55;;;;;;;0.20;0.20;;;;;;;;;;5093037;28;20213;-86
2022/06/29 01:32:21;;;;;;;0.00;0.00;;;;;;;;;;5089912;28;20050;-86
2022/06/29 01:34:47;;;;;;;0.00;0.00;;;;;;;;;;5092914;28;20471;-86
2022/06/29 01:37:13;;;;;;;0.10;0.10;;;;;;;;;;5092288;28;20699;-86
2022/06/29 01:39:39;;;;;;;0.10;0.10;;;;;;;;;;5092841;28;20107;-82
2022/06/29 01:42:05;;;;;;;0.10;0.10;;;;;;;;;;5090720;28;20028;-87
2022/06/29 01:44:31;;;;;;;0.00;0.00;;;;;;;;;;5092519;28;20032;-84
2022/06/29 01:46:57;;;;;;;0.00;0.00;;;;;;;;;;5093011;28;20028;-84
2022/06/29 01:49:23;;;;;;;0.10;0.10;;;;;;;;;;5092232;28;20020;-85
2022/06/29 01:51:49;;;;;;;0.00;0.00;;;;;;;;;;5091409;28;20077;-83
2022/06/29 01:54:15;;;;;;;0.00;0.00;;;;;;;;;;5091206;28;20473;-84
2022/06/29 01:56:40;;;;;;;0.00;0.00;;;;;;;;;;5092076;28;20066;-84
2022/06/29 01:59:06;;;;;;;0.00;0.00;;;;;;;;;;5089149;28;20039;-82
2022/06/29 02:01:31;;;;;;;0.63;0.63;;;;;;;;;;5091767;28;20030;-86
2022/06/29 02:03:57;;;;;;;0.00;0.00;;;;;;;;;;5091020;28;20134;-86
2022/06/29 02:06:23;;;;;;;0.00;0.00;;;;;;;;;;5090152;28;20016;-85
2022/06/29 02:08:48;;;;;;;0.15;0.05;;;;;;;;;;5091058;28;20076;-85
2022/06/29 02:11:14;;;;;;;0.00;0.00;;;;;;;;;;5092331;28;20028;-83
2022/06/29 02:13:40;;;;;;;0.10;0.10;;;;;;;;;;5090387;28;20113;-86
2022/06/29 02:16:05;;;;;;;0.30;0.30;;;;;;;;;;5092106;28;20035;-84
2022/06/29 02:18:31;;;;;;;0.05;0.05;;;;;;;;;;5091889;28;20050;-86
2022/06/29 02:20:56;;;;;;;0.00;0.00;;;;;;;;;;5091746;28;20043;-84
2022/06/29 02:23:22;;;;;;;0.00;0.00;;;;;;;;;;5091728;28;20036;-84
2022/06/29 02:25:50;;;;;;;0.00;0.00;;;;;;;;;;5086341;28;20024;-84
2022/06/29 02:28:16;;;;;;;0.00;0.00;;;;;;;;;;5090679;28;20470;-87
2022/06/29 02:36:09;;;;;;;0.00;0.00;;;;;;;;;;5091660;28;20035;-86
2022/06/29 02:38:35;;;;;;;9.02;1.80;;;;;;;;;;5090371;28;20055;-85
2022/06/29 02:41:01;;;;;;;0.03;0.03;;;;;;;;;;5091133;28;20035;-84
2022/06/29 02:43:26;;;;;;;0.43;0.20;;;;;;;;;;5091689;28;20098;-86
2022/06/29 02:45:52;;;;;;;0.00;0.00;;;;;;;;;;5091670;28;20024;-84
2022/06/29 02:48:18;;;;;;;0.00;0.00;;;;;;;;;;5091806;28;20526;-84
2022/06/29 02:50:43;;;;;;;0.00;0.00;;;;;;;;;;5090005;28;20074;-86
2022/06/29 02:53:09;;;;;;;0.00;0.00;;;;;;;;;;5089332;28;20161;-85
2022/06/29 02:55:34;;;;;;;0.00;0.00;;;;;;;;;;5086876;28;20077;-87
2022/06/29 02:57:59;;;;;;;0.10;0.10;;;;;;;;;;5089379;28;20110;-84
2022/06/29 03:00:25;;;;;;;0.00;0.00;;;;;;;;;;5090091;28;20028;-83
2022/06/29 03:02:51;;;;;;;0.00;0.00;;;;;;;;;;5084824;28;20024;-86
2022/06/29 03:05:16;;;;;;;0.00;0.00;;;;;;;;;;5084947;28;20060;-85
2022/06/29 03:07:42;;;;;;;0.10;0.10;;;;;;;;;;5082802;28;20035;-84
2022/06/29 03:10:08;;;;;;;0.10;0.10;;;;;;;;;;5086261;28;20029;-84
2022/06/29 03:12:33;;;;;;;0.22;0.13;;;;;;;;;;5084976;28;20419;-84
2022/06/29 03:14:59;;;;;;;0.00;0.00;;;;;;;;;;5089430;28;20513;-86
2022/06/29 03:17:24;;;;;;;0.00;0.00;;;;;;;;;;5087258;28;20025;-86
2022/06/29 03:19:50;;;;;;;0.03;0.03;;;;;;;;;;5091700;28;20144;-87
2022/06/29 03:22:15;;;;;;;0.00;0.00;;;;;;;;;;5090895;28;20364;-83
2022/06/29 03:24:41;;;;;;;0.10;0.10;;;;;;;;;;5090773;28;20027;-86
2022/06/29 03:27:06;;;;;;;0.13;0.13;;;;;;;;;;5090767;28;20352;-86
2022/06/29 03:29:32;;;;;;;0.00;0.00;;;;;;;;;;5091071;28;20024;-84
2022/06/29 03:31:58;;;;;;;0.00;0.00;;;;;;;;;;5094832;28;20436;-87
2022/06/29 03:34:24;;;;;;;0.00;0.00;;;;;;;;;;5090738;28;20046;-86
2022/06/29 03:36:49;;;;;;;0.10;0.10;;;;;;;;;;5092820;28;20016;-84
2022/06/29 03:39:14;;;;;;;0.00;0.00;;;;;;;;;;5090763;28;20047;-86
2022/06/29 03:41:40;;;;;;;0.43;0.43;;;;;;;;;;5090619;28;20069;-86
2022/06/29 03:44:05;;;;;;;0.30;0.30;;;;;;;;;;5093470;28;20388;-86
2022/06/29 03:46:31;;;;;;;0.17;0.17;;;;;;;;;;5090111;28;20058;-87
2022/06/29 03:48:56;;;;;;;0.20;0.20;;;;;;;;;;5094063;28;20028;-85
2022/06/29 03:51:22;;;;;;;0.00;0.00;;;;;;;;;;5093129;28;20028;-87
2022/06/29 03:53:47;;;;;;;0.00;0.00;;;;;;;;;;5093799;28;20051;-86
2022/06/29 03:56:13;;;;;;;0.03;0.03;;;;;;;;;;5091101;28;20383;-87
2022/06/29 03:58:38;;;;;;;0.22;0.08;;;;;;;;;;5093702;28;20035;-85
2022/06/29 04:01:04;;;;;;;0.00;0.00;;;;;;;;;;5093246;28;20031;-86
2022/06/29 04:03:30;;;;;;;0.43;0.43;;;;;;;;;;5094180;28;20020;-86
2022/06/29 04:05:55;;;;;;;0.20;0.20;;;;;;;;;;5092786;28;20031;-86
2022/06/29 04:08:21;;;;;;;0.00;0.00;;;;;;;;;;5093261;28;20038;-86
2022/06/29 04:10:46;;;;;;;0.47;0.47;;;;;;;;;;5092763;28;20089;-86
2022/06/29 04:13:12;;;;;;;0.15;0.15;;;;;;;;;;5092074;28;20036;-84
2022/06/29 04:15:37;;;;;;;0.00;0.00;;;;;;;;;;5090243;28;20035;-87
2022/06/29 04:18:03;;;;;;;0.00;0.00;;;;;;;;;;5092643;28;20031;-87
2022/06/29 04:23:13;;;;;;;0.20;0.20;;;;;;;;;;5094438;28;20499;-86
2022/06/29 04:25:39;;;;;;;0.85;0.85;;;;;;;;;;5094279;28;20020;-86
2022/06/29 04:28:06;;;;;;;0.17;0.17;;;;;;;;;;5091665;28;20107;-85
2022/06/29 04:30:32;;;;;;;0.10;0.10;;;;;;;;;;5091589;28;20426;-85
2022/06/29 04:32:57;;;;;;;0.75;0.63;;;;;;;;;;5093748;28;20340;-84
2022/06/29 04:35:23;;;;;;;0.00;0.00;;;;;;;;;;5094197;28;20111;-85
2022/06/29 04:37:48;;;;;;;0.22;0.22;;;;;;;;;;5093888;28;20498;-85
2022/06/29 04:40:14;;;;;;;0.20;0.08;;;;;;;;;;5090084;28;20027;-85
2022/06/29 04:42:39;;;;;;;0.10;0.10;;;;;;;;;;5092920;28;20361;-84
2022/06/29 04:45:05;;;;;;;0.17;0.17;;;;;;;;;;5093906;28;20080;-84
2022/06/29 04:47:30;;;;;;;0.17;0.17;;;;;;;;;;5093511;28;20028;-84
2022/06/29 04:49:56;;;;;;;0.08;0.08;;;;;;;;;;5092337;28;20035;-85
2022/06/29 04:52:24;;;;;;;0.10;0.10;;;;;;;;;;5093921;28;20047;-84
2022/06/29 04:54:49;;;;;;;0.03;0.03;;;;;;;;;;5094141;28;20099;-84
2022/06/29 04:57:15;;;;;;;0.00;0.00;;;;;;;;;;5093804;28;20364;-84
2022/06/29 04:59:40;;;;;;;0.00;0.00;;;;;;;;;;5093412;28;20392;-84
2022/06/29 05:02:05;;;;;;;0.15;0.15;;;;;;;;;;5087959;28;20369;-83
2022/06/29 05:04:31;;;;;;;0.32;0.32;;;;;;;;;;5093093;28;20575;-85
2022/06/29 05:06:56;;;;;;;0.25;0.25;;;;;;;;;;5093172;28;20024;-84
2022/06/29 05:09:22;;;;;;;0.10;0.10;;;;;;;;;;5093140;28;20110;-82
2022/06/29 05:11:47;;;;;;;0.20;0.20;;;;;;;;;;5091131;28;20024;-85
2022/06/29 05:14:13;;;;;;;0.03;0.03;;;;;;;;;;5092858;28;20742;-85
2022/06/29 05:16:38;;;;;;;0.00;0.00;;;;;;;;;;5092915;28;20498;-84
2022/06/29 05:19:04;;;;;;;0.30;0.30;;;;;;;;;;5092993;28;20022;-84
2022/06/29 05:21:30;;;;;;;0.00;0.00;;;;;;;;;;5091488;28;20067;-85
2022/06/29 05:23:57;;;;;;;1.00;0.90;;;;;;;;;;5092664;28;20115;-85
2022/06/29 05:26:22;;;;;;;0.35;0.35;;;;;;;;;;5092734;28;20042;-84
2022/06/29 05:28:48;;;;;;;0.88;0.63;;;;;;;;;;5091068;28;20459;-85
2022/06/29 05:31:13;;;;;;;0.10;0.10;;;;;;;;;;5092634;28;20020;-85
2022/06/29 05:33:39;;;;;;;1.02;0.60;;;;;;;;;;5092219;28;20433;-83
2022/06/29 05:36:06;;;;;;;0.40;0.40;;;;;;;;;;5092759;28;20496;-84
2022/06/29 05:38:32;;;;;;;0.40;0.40;;;;;;;;;;5091273;28;20031;-82
2022/06/29 05:40:58;;;;;;;0.43;0.35;;;;;;;;;;5091968;28;20031;-83
2022/06/29 05:43:23;;;;;;;0.25;0.25;;;;;;;;;;5091623;28;20016;-83
2022/06/29 05:45:49;;;;;;;0.08;0.08;;;;;;;;;;5091844;28;20028;-84
2022/06/29 05:48:14;;;;;;;0.30;0.30;;;;;;;;;;5091544;28;20024;-85
2022/06/29 05:50:40;;;;;;;13.52;0.57;;;;;;;;;;5091123;28;20034;-85
2022/06/29 05:53:05;;;;;;;0.32;0.32;;;;;;;;;;5087791;28;20037;-86
2022/06/29 05:55:31;;;;;;;0.10;0.10;;;;;;;;;;5090651;28;20543;-85
2022/06/29 05:57:57;;;;;;;0.88;0.80;;;;;;;;;;5087301;28;20028;-85
2022/06/29 06:00:23;;;;;;;0.20;0.13;;;;;;;;;;5088139;28;20030;-84
2022/06/29 06:02:48;;;;;;;0.55;0.55;;;;;;;;;;5089365;28;20055;-81
2022/06/29 06:05:14;;;;;;;1.75;1.58;;;;;;;;;;5089149;28;20032;-87
2022/06/29 06:07:39;;;;;;;0.20;0.20;;;;;;;;;;5088989;28;20028;-82
2022/06/29 06:10:05;;;;;;;0.68;0.68;;;;;;;;;;5087028;28;20051;-84
2022/06/29 06:12:32;;;;;;;0.20;0.20;;;;;;;;;;5087214;28;20035;-82
2022/06/29 06:14:58;;;;;;;0.55;0.55;;;;;;;;;;5086738;28;20012;-82
2022/06/29 06:17:26;;;;;;;1.98;1.02;;;;;;;;;;5089108;28;20036;-82
2022/06/29 06:19:53;;;;;;;0.40;0.40;;;;;;;;;;5082633;28;20058;-82
2022/06/29 06:22:18;;;;;;;0.30;0.30;;;;;;;;;;5081786;28;20028;-82
2022/06/29 06:24:43;;;;;;;0.10;0.10;;;;;;;;;;5083698;28;20020;-82
2022/06/29 06:27:09;;;;;;;0.20;0.20;;;;;;;;;;5087504;28;20031;-81
2022/06/29 06:29:34;;;;;;;0.20;0.20;;;;;;;;;;5083125;28;20103;-82
2022/06/29 06:32:01;;;;;;;0.15;0.15;;;;;;;;;;5087518;28;20034;-82
2022/06/29 06:34:27;;;;;;;0.70;0.55;;;;;;;;;;5084284;28;20024;-83
2022/06/29 06:36:53;;;;;;;0.38;0.38;;;;;;;;;;5081556;28;20089;-82
2022/06/29 06:39:18;;;;;;;0.20;0.20;;;;;;;;;;5087557;28;20032;-81
2022/06/29 06:41:44;;;;;;;0.13;0.13;;;;;;;;;;5081148;28;20019;-82
2022/06/29 06:44:09;;;;;;;1.23;1.20;;;;;;;;;;5085441;28;20383;-84
2022/06/29 06:46:35;;;;;;;8.80;8.00;;;;;;;;;;5083598;28;20083;-82
2022/06/29 06:49:00;;;;;;;9.00;8.10;;;;;;;;;;5087486;28;20020;-81
2022/06/29 06:51:26;;;;;;;9.50;8.57;;;;;;;;;;5086217;28;20438;-82
2022/06/29 06:53:51;;;;;;;8.38;7.57;;;;;;;;;;5090865;28;20029;-81
2022/06/29 06:56:17;;;;;;;9.20;7.53;;;;;;;;;;5085287;28;20055;-81
2022/06/29 06:58:43;;;;;;;12.05;8.40;;;;;;;;;;5086251;28;20059;-83
2022/06/29 07:01:09;;;;;;;8.80;7.45;;;;;;;;;;5090440;28;20024;-81
2022/06/29 07:03:38;;;;;;;8.23;7.43;;;;;;;;;;5086694;28;20503;-83
2022/06/29 07:06:05;;;;;;;8.90;7.00;;;;;;;;;;5086990;28;20409;-83
2022/06/29 07:08:32;;;;;;;9.65;7.57;;;;;;;;;;5086046;28;20427;-82
2022/06/29 07:10:59;;;;;;;7.95;7.25;;;;;;;;;;5085525;28;20026;-83
2022/06/29 07:13:25;;;;;;;7.63;6.53;;;;;;;;;;5089140;28;20024;-84
2022/06/29 07:15:51;;;;;;;8.98;7.00;;;;;;;;;;5087853;28;20023;-83
2022/06/29 07:18:16;;;;;;;8.95;6.95;;;;;;;;;;5086784;28;20039;-82
2022/06/29 07:20:42;;;;;;;8.35;7.10;;;;;;;;;;5085987;28;20365;-84
2022/06/29 07:23:07;;;;;;;8.02;6.32;;;;;;;;;;5087800;28;20059;-84
2022/06/29 07:25:33;;;;;;;9.32;6.35;;;;;;;;;;5090434;28;20373;-84
2022/06/29 07:27:58;;;;;;;10.93;10.02;;;;;;;;;;5089111;28;20020;-82
2022/06/29 07:30:24;;;;;;;22.20;20.02;;;;;;;;;;5086332;28;20055;-83
2022/06/29 07:32:49;;;;;;;10.18;8.90;;;;;;;;;;5089301;28;20164;-82
2022/06/29 07:35:15;;;;;;;6.18;5.63;;;;;;;;;;5084861;28;20023;-85
2022/06/29 07:37:44;;;;;;;6.60;5.45;;;;;;;;;;5088960;28;20493;-85
2022/06/29 07:40:10;;;;;;;7.07;5.80;;;;;;;;;;5087302;28;20024;-84
2022/06/29 07:42:36;;;;;;;5.65;5.00;;;;;;;;;;5089667;28;20036;-85
2022/06/29 07:45:03;;;;;;;5.95;5.35;;;;;;;;;;5087627;28;20038;-83
2022/06/29 07:47:28;;;;;;;5.93;5.15;;;;;;;;;;5084954;28;20108;-83
2022/06/29 07:49:54;;;;;;;5.47;4.97;;;;;;;;;;5084453;28;20524;-84
2022/06/29 07:52:20;;;;;;;5.88;5.38;;;;;;;;;;5088009;28;20043;-84
2022/06/29 07:54:45;;;;;;;8.13;5.25;;;;;;;;;;5087143;28;20025;-84
2022/06/29 07:57:11;;;;;;;6.22;5.63;;;;;;;;;;5089572;28;20103;-85
2022/06/29 07:59:36;;;;;;;5.20;4.70;;;;;;;;;;5089795;28;20480;-87
2022/06/29 08:02:02;;;;;;;5.95;5.18;;;;;;;;;;5084087;28;20032;-85
2022/06/29 08:04:27;;;;;;;5.20;4.47;;;;;;;;;;5088132;28;20020;-84
2022/06/29 08:06:53;;;;;;;5.00;4.50;;;;;;;;;;5086664;28;20062;-84
2022/06/29 08:09:18;;;;;;;6.70;4.90;;;;;;;;;;5089760;28;20056;-84
2022/06/29 08:11:44;;;;;;;6.15;4.55;;;;;;;;;;5093738;28;20038;-85
2022/06/29 08:14:10;;;;;;;5.72;4.75;;;;;;;;;;5092684;28;20016;-84
2022/06/29 08:16:36;;;;;;;5.30;4.80;;;;;;;;;;5093373;28;20051;-84
2022/06/29 08:19:01;;;;;;;6.70;4.60;;;;;;;;;;5089159;28;20044;-84
2022/06/29 08:21:26;;;;;;;4.30;4.00;;;;;;;;;;5092009;28;20118;-84
2022/06/29 08:23:52;;;;;;;5.65;4.70;;;;;;;;;;5089149;28;20096;-84
2022/06/29 08:26:17;;;;;;;5.88;4.32;;;;;;;;;;5091507;28;20056;-84
2022/06/29 08:28:43;;;;;;;4.68;4.18;;;;;;;;;;5088690;28;20028;-86
2022/06/29 08:31:08;;;;;;;7.30;4.47;;;;;;;;;;5091304;28;20039;-86
2022/06/29 08:33:34;;;;;;;4.35;3.72;;;;;;;;;;5087186;28;20020;-85
2022/06/29 08:35:59;;;;;;;4.47;3.92;;;;;;;;;;5093310;28;20047;-84
2022/06/29 08:38:24;;;;;;;5.25;3.97;;;;;;;;;;5089365;28;20021;-85
2022/06/29 08:40:50;;;;;;;5.45;3.85;;;;;;;;;;5088817;28;20055;-82
2022/06/29 08:43:17;;;;;;;5.70;3.80;;;;;;;;;;5090086;28;20078;-83
2022/06/29 08:45:45;;;;;;;4.07;3.58;;;;;;;;;;5091364;28;20371;-82
2022/06/29 08:48:12;;;;;;;6.90;3.45;;;;;;;;;;5091098;28;20039;-83
2022/06/29 08:50:39;;;;;;;4.97;3.40;;;;;;;;;;5090711;28;20487;-83
2022/06/29 08:53:07;;;;;;;3.58;3.28;;;;;;;;;;5091613;28;20186;-84
2022/06/29 08:55:37;;;;;;;6.03;3.53;;;;;;;;;;5092871;28;20157;-84
2022/06/29 08:58:05;;;;;;;4.75;3.63;;;;;;;;;;5091641;28;20024;-83
2022/06/29 09:00:31;;;;;;;3.15;2.85;;;;;;;;;;5092703;28;20038;-83
2022/06/29 09:02:57;;;;;;;4.20;3.17;;;;;;;;;;5091680;28;20448;-83
2022/06/29 09:05:22;;;;;;;2.92;2.40;;;;;;;;;;5091724;28;20409;-85
2022/06/29 09:07:48;;;;;;;2.60;2.30;;;;;;;;;;5092080;28;20134;-83
2022/06/29 09:10:18;;;;;;;3.10;2.55;;;;;;;;;;5091143;28;20023;-83
2022/06/29 09:12:53;;;;;;;2.47;2.22;;;;;;;;;;5091941;28;20024;-81
2022/06/29 09:15:41;;;;;;;3.15;2.30;;;;;;;;;;5089576;28;20020;-84
2022/06/29 09:18:42;;;;;;;3.80;3.22;;;;;;;;;;5090096;28;20060;-84
2022/06/29 09:21:07;;;;;;;2.47;2.08;;;;;;;;;;5067128;28;20090;-82
2022/06/29 09:23:35;;;;;;;2.25;1.52;;;;;;;;;;5086236;28;20522;-82
2022/06/29 09:26:01;;;;;;;2.15;1.90;;;;;;;;;;5090517;28;20020;-82
2022/06/29 09:28:34;;;;;;;4.60;2.42;;;;;;;;;;5085179;28;20268;-81
2022/06/29 09:31:00;;;;;;;4.55;2.13;;;;;;;;;;5088987;28;20028;-82
2022/06/29 09:33:28;;;;;;;4.55;2.10;;;;;;;;;;5085914;28;20027;-84
2022/06/29 09:36:06;;;;;;;2.35;2.10;;;;;;;;;;5086625;28;20067;-84
2022/06/29 09:38:32;;;;;;;3.33;2.10;;;;;;;;;;5088119;28;20028;-84
2022/06/29 09:41:09;;;;;;;2.50;2.00;;;;;;;;;;5089846;28;20490;-82
2022/06/29 09:43:43;;;;;;;2.30;1.80;;;;;;;;;;5088782;28;20028;-81
2022/06/29 09:46:12;;;;;;;3.03;1.65;;;;;;;;;;5090068;28;20020;-82
2022/06/29 09:48:39;;;;;;;4.20;2.37;;;;;;;;;;5086580;28;20502;-84
2022/06/29 09:53:59;;;;;;;2.80;2.00;;;;;;;;;;5089828;28;20067;-82
2022/06/29 09:56:26;;;;;;;4.70;1.65;;;;;;;;;;5086253;28;20115;-81
2022/06/29 09:58:56;;;;;;;3.47;1.83;;;;;;;;;;5085951;28;20087;-85
2022/06/29 10:04:07;;;;;;;2.47;2.08;;;;;;;;;;5088630;28;20043;-86
2022/06/29 10:06:32;;;;;;;2.55;2.17;;;;;;;;;;5088992;28;20019;-83
2022/06/29 10:08:58;;;;;;;3.78;2.10;;;;;;;;;;5088352;28;21275;-82
2022/06/29 10:14:47;;;;;;;2.63;1.75;;;;;;;;;;5088328;28;20055;-81
2022/06/29 10:17:40;;;;;;;2.10;1.70;;;;;;;;;;5086011;28;20048;-82
2022/06/29 10:20:33;;;;;;;2.55;1.83;;;;;;;;;;5089028;28;20513;-84
2022/06/29 10:22:59;;;;;;;3.67;1.77;;;;;;;;;;5090130;28;20112;-82
2022/06/29 10:25:27;;;;;;;3.55;2.35;;;;;;;;;;5089252;28;20047;-82
2022/06/29 10:28:13;;;;;;;3.05;1.80;;;;;;;;;;5089963;28;20380;-81
2022/06/29 10:30:39;;;;;;;4.40;1.70;;;;;;;;;;5084459;28;20032;-83
2022/06/29 10:33:30;;;;;;;2.00;1.70;;;;;;;;;;5087169;28;20047;-82
2022/06/29 10:36:06;;;;;;;3.38;1.58;;;;;;;;;;5086057;28;20372;-82
2022/06/29 10:38:50;;;;;;;2.45;1.65;;;;;;;;;;5088647;28;20024;-83
2022/06/29 10:43:59;;;;;;;1.65;1.45;;;;;;;;;;5087838;28;20066;-82
2022/06/29 10:46:24;;;;;;;2.47;1.80;;;;;;;;;;5089739;28;20433;-82
2022/06/29 10:49:21;;;;;;;9.82;2.40;;;;;;;;;;5086424;28;20094;-82
2022/06/29 10:51:50;;;;;;;4.22;1.92;;;;;;;;;;5082580;28;20032;-81
2022/06/29 10:54:25;;;;;;;2.42;1.42;;;;;;;;;;5086039;28;20503;-81
2022/06/29 10:56:51;;;;;;;2.33;1.30;;;;;;;;;;5089004;28;20032;-82
2022/06/29 10:59:32;;;;;;;1.85;1.30;;;;;;;;;;5089119;28;20027;-79
2022/06/29 11:02:16;;;;;;;2.10;1.45;;;;;;;;;;5088334;28;20036;-81
2022/06/29 11:04:42;;;;;;;1.60;1.38;;;;;;;;;;5089728;28;20031;-83
2022/06/29 11:12:54;;;;;;;2.60;1.40;;;;;;;;;;5089397;28;20116;-81
2022/06/29 11:15:39;;;;;;;1.40;1.23;;;;;;;;;;5088811;28;20395;-82
2022/06/29 11:18:13;;;;;;;2.58;1.50;;;;;;;;;;5089424;28;20119;-85
2022/06/29 11:20:45;;;;;;;2.92;1.30;;;;;;;;;;5086248;28;20020;-83
2022/06/29 11:23:14;;;;;;;3.53;1.35;;;;;;;;;;5089414;28;20123;-83
2022/06/29 11:25:48;;;;;;;2.92;1.48;;;;;;;;;;5082438;28;20024;-84
2022/06/29 11:28:17;;;;;;;3.03;1.67;;;;;;;;;;5086475;28;20048;-80
2022/06/29 11:30:57;;;;;;;2.17;1.30;;;;;;;;;;5084705;28;20115;-83
2022/06/29 11:33:27;;;;;;;1.88;1.17;;;;;;;;;;5089077;28;20052;-80
2022/06/29 11:35:53;;;;;;;2.15;1.40;;;;;;;;;;5082115;28;20111;-82
2022/06/29 11:38:19;;;;;;;2.67;1.27;;;;;;;;;;5084181;28;20147;-81
2022/06/29 11:40:46;;;;;;;2.13;1.33;;;;;;;;;;5087509;28;20114;-81
2022/06/29 11:43:18;;;;;;;1.55;1.30;;;;;;;;;;5091295;28;20020;-84
2022/06/29 11:45:48;;;;;;;1.30;1.20;;;;;;;;;;5087526;28;20028;-83
2022/06/29 11:48:21;;;;;;;6.20;1.83;;;;;;;;;;5088371;28;20021;-83
2022/06/29 11:50:48;;;;;;;2.92;1.38;;;;;;;;;;5088553;28;20387;-83
2022/06/29 11:53:34;;;;;;;3.30;1.27;;;;;;;;;;5087152;28;20133;-82
2022/06/29 11:55:59;;;;;;;1.13;1.02;;;;;;;;;;5086798;28;20453;-83
2022/06/29 11:58:25;;;;;;;2.55;1.40;;;;;;;;;;5088425;28;20085;-84
2022/06/29 12:00:54;;;;;;;1.63;1.17;;;;;;;;;;5087045;28;20073;-85
2022/06/29 12:03:19;;;;;;;1.85;1.20;;;;;;;;;;5089184;28;20029;-85
2022/06/29 12:05:58;;;;;;;1.85;1.30;;;;;;;;;;5088869;28;20055;-82
2022/06/29 12:08:24;;;;;;;1.20;1.10;;;;;;;;;;5091190;28;20051;-84
2022/06/29 12:10:49;;;;;;;1.80;1.10;;;;;;;;;;5089792;28;20545;-80
2022/06/29 12:13:15;;;;;;;3.45;3.05;;;;;;;;;;5082243;28;20021;-81
2022/06/29 12:15:40;;;;;;;3.65;2.00;;;;;;;;;;5087395;28;20050;-83
2022/06/29 12:18:06;;;;;;;2.35;1.30;;;;;;;;;;5092462;28;20062;-86
2022/06/29 12:20:31;;;;;;;3.85;1.70;;;;;;;;;;5088551;28;20013;-83
2022/06/29 12:22:57;;;;;;;2.13;1.30;;;;;;;;;;5090262;28;20048;-83
2022/06/29 12:25:22;;;;;;;3.17;1.30;;;;;;;;;;5090546;28;20108;-86
2022/06/29 12:27:48;;;;;;;1.58;1.23;;;;;;;;;;5088801;28;20020;-83
2022/06/29 12:30:14;;;;;;;1.50;1.20;;;;;;;;;;5092118;28;20388;-83
2022/06/29 12:32:39;;;;;;;2.10;1.60;;;;;;;;;;5082508;28;20127;-83
2022/06/29 12:35:06;;;;;;;1.52;1.33;;;;;;;;;;5088989;28;20020;-85
2022/06/29 12:37:31;;;;;;;9.20;1.77;;;;;;;;;;5087800;28;20020;-82
2022/06/29 12:39:57;;;;;;;2.95;1.40;;;;;;;;;;5091526;28;20101;-83
2022/06/29 12:42:22;;;;;;;1.65;1.50;;;;;;;;;;5088336;28;20032;-84
2022/06/29 12:44:47;;;;;;;4.07;1.80;;;;;;;;;;5090253;28;20020;-85
2022/06/29 12:47:13;;;;;;;2.88;1.33;;;;;;;;;;5087245;28;20028;-83
2022/06/29 12:49:39;;;;;;;5.75;1.40;;;;;;;;;;5088060;28;20031;-84
2022/06/29 12:52:04;;;;;;;1.55;1.10;;;;;;;;;;5088296;28;20070;-85
2022/06/29 12:54:30;;;;;;;1.10;1.00;;;;;;;;;;5085376;28;20376;-84
2022/06/29 12:56:55;;;;;;;1.45;1.27;;;;;;;;;;5085918;28;20529;-83
2022/06/29 12:59:21;;;;;;;3.90;1.30;;;;;;;;;;5086464;28;20448;-90
2022/06/29 13:01:47;;;;;;;5.82;1.60;;;;;;;;;;5085128;28;20495;-84
2022/06/29 13:04:13;;;;;;;1.65;1.10;;;;;;;;;;5083985;28;20085;-83
2022/06/29 13:06:39;;;;;;;1.80;1.10;;;;;;;;;;5087394;28;20070;-81
2022/06/29 13:09:05;;;;;;;1.20;1.10;;;;;;;;;;5083385;28;20028;-82
2022/06/29 13:11:30;;;;;;;2.85;1.70;;;;;;;;;;5090747;28;20020;-83
2022/06/29 13:13:56;;;;;;;1.95;1.55;;;;;;;;;;5087521;28;20483;-82
2022/06/29 13:16:21;;;;;;;1.92;1.60;;;;;;;;;;5088138;28;20130;-83
2022/06/29 13:18:47;;;;;;;2.63;1.40;;;;;;;;;;5084991;28;20038;-83
2022/06/29 13:21:12;;;;;;;2.67;1.98;;;;;;;;;;5091522;28;20028;-86
2022/06/29 13:23:38;;;;;;;1.10;1.00;;;;;;;;;;5080460;28;20028;-84
2022/06/29 13:26:03;;;;;;;8.60;2.72;;;;;;;;;;5089400;28;20103;-84
2022/06/29 13:28:30;;;;;;;1.58;1.27;;;;;;;;;;5080934;28;20166;-83
2022/06/29 13:30:56;;;;;;;2.47;1.65;;;;;;;;;;5087832;28;20027;-83
2022/06/29 13:33:21;;;;;;;1.20;1.10;;;;;;;;;;5080712;28;20460;-83
2022/06/29 13:35:47;;;;;;;3.58;2.42;;;;;;;;;;5087265;28;20048;-86
2022/06/29 13:38:13;;;;;;;2.25;1.48;;;;;;;;;;5084212;28;20016;-84
2022/06/29 13:40:39;;;;;;;3.85;1.27;;;;;;;;;;5088916;28;20377;-84
2022/06/29 13:43:05;;;;;;;5.10;1.40;;;;;;;;;;5089194;28;20028;-84
2022/06/29 13:45:31;;;;;;;0.70;0.70;;;;;;;;;;5087107;28;20094;-84
2022/06/29 13:47:56;;;;;;;1.38;1.10;;;;;;;;;;5085896;28;20042;-84
2022/06/29 13:50:22;;;;;;;6.20;4.10;;;;;;;;;;5084195;28;20027;-83
2022/06/29 13:52:47;;;;;;;1.83;1.35;;;;;;;;;;5084944;28;20590;-83
2022/06/29 13:55:13;;;;;;;1.30;1.00;;;;;;;;;;5086907;28;20012;-85
2022/06/29 13:57:40;;;;;;;1.17;0.90;;;;;;;;;;5085381;28;20364;-84
2022/06/29 14:00:06;;;;;;;1.67;1.08;;;;;;;;;;5083023;28;20491;-82
2022/06/29 14:02:34;;;;;;;1.42;1.15;;;;;;;;;;5081906;28;20031;-84
2022/06/29 14:05:01;;;;;;;2.47;1.20;;;;;;;;;;5085885;28;20543;-84
2022/06/29 14:07:27;;;;;;;2.15;1.30;;;;;;;;;;5082935;28;20516;-86
2022/06/29 14:09:52;;;;;;;1.50;1.20;;;;;;;;;;5084937;28;20085;-84
2022/06/29 14:12:19;;;;;;;2.15;1.20;;;;;;;;;;5086458;28;20023;-81
2022/06/29 14:14:45;;;;;;;0.98;0.93;;;;;;;;;;5081041;28;20391;-84
2022/06/29 14:17:11;;;;;;;1.42;1.20;;;;;;;;;;5080803;28;20024;-83
2022/06/29 14:19:36;;;;;;;1.10;1.00;;;;;;;;;;5087730;28;20468;-84
2022/06/29 14:22:04;;;;;;;1.55;0.93;;;;;;;;;;5085931;28;20047;-83
2022/06/29 14:24:30;;;;;;;1.48;1.20;;;;;;;;;;5085452;28;20391;-84
2022/06/29 14:26:56;;;;;;;1.38;1.00;;;;;;;;;;5088224;28;20023;-84
2022/06/29 14:29:22;;;;;;;2.25;1.00;;;;;;;;;;5086264;28;20115;-81
2022/06/29 14:31:48;;;;;;;1.08;0.93;;;;;;;;;;5086545;28;20115;-85
2022/06/29 14:34:13;;;;;;;1.30;1.10;;;;;;;;;;5087593;28;20020;-85
2022/06/29 14:36:39;;;;;;;2.20;1.10;;;;;;;;;;5086274;28;20085;-83
2022/06/29 14:39:04;;;;;;;1.65;0.90;;;;;;;;;;5083832;28;20145;-83
2022/06/29 14:41:30;;;;;;;3.55;1.20;;;;;;;;;;5086731;28;20073;-83
2022/06/29 14:43:56;;;;;;;3.33;1.52;;;;;;;;;;5087341;28;20028;-82
2022/06/29 14:46:22;;;;;;;5.53;1.88;;;;;;;;;;5087825;28;20845;-84
2022/06/29 14:48:48;;;;;;;1.70;1.10;;;;;;;;;;5084137;28;20032;-83
2022/06/29 14:51:16;;;;;;;4.57;1.05;;;;;;;;;;5086057;28;20024;-83
2022/06/29 14:53:41;;;;;;;1.05;0.90;;;;;;;;;;5089679;28;20048;-83
2022/06/29 14:56:07;;;;;;;1.98;1.00;;;;;;;;;;5090639;28;20035;-82
2022/06/29 14:58:33;;;;;;;2.92;1.30;;;;;;;;;;5088492;28;20028;-83
2022/06/29 15:00:58;;;;;;;1.13;1.02;;;;;;;;;;5088117;28;20032;-80
2022/06/29 15:03:26;;;;;;;2.13;1.50;;;;;;;;;;5089259;28;20097;-83
2022/06/29 15:05:51;;;;;;;3.05;1.48;;;;;;;;;;5088776;28;20103;-83
2022/06/29 15:08:16;;;;;;;7.13;2.05;;;;;;;;;;5088307;28;20149;-83